Terminal Aerodrome Forecast
Issued by NWS

Home | Current Version | Previous Version | Graphics & Text | Print | Product List | Glossary On
Versions: 1 2 3 4 5 6 7 8 9 10 11 12 13 14 15 16 17 18 19 20 21
000
FTUS43 KIWX 221700 RRA
TAFSBN
TAF
KSBN 221741Z 2218/2318 25007KT P6SM BKN015
     FM222000 26008KT P6SM BKN035
     FM230900 VRB03KT 3SM BR SCT007
      TEMPO 2309/2313 2SM BR BKN007
     FM231300 10005KT 4SM BR BKN015=

USA.gov is the U.S. government's official web portal to all federal, state and local government web resources and services.